Time,TemperatureF,DewpointF,PressureIn,WindDirection,WindDirectionDegrees,WindSpeedMPH,WindSpeedGustMPH,Humidity,HourlyPrecipIn,Conditions,Clouds,dailyrainin,SolarRadiationWatts/m^2,SoftwareType,DateUTC
2013-03-22 00:04:00,30.0,28.0,-100.00,West,274,1.0,5.0,94,0.00,,,0.03,1.000000,,2013-03-22 04:04:00,
2013-03-22 00:12:00,30.0,28.0,-100.00,West,274,1.0,5.0,94,0.00,,,0.03,1.000000,,2013-03-22 04:12:00,
2013-03-22 00:23:00,30.0,28.0,-100.00,West,274,1.0,5.0,94,0.00,,,0.03,1.000000,,2013-03-22 04:23:00,
2013-03-22 00:52:00,30.0,28.0,-100.00,West,274,1.0,6.0,93,0.00,,,0.03,1.000000,,2013-03-22 04:52:00,
2013-03-22 01:02:00,30.0,28.0,-100.00,West,274,1.0,6.0,93,0.00,,,0.03,1.000000,,2013-03-22 05:02:00,
2013-03-22 01:12:00,30.0,28.0,-100.00,West,274,1.0,6.0,93,0.00,,,0.03,1.000000,,2013-03-22 05:12:00,
2013-03-22 01:22:00,30.0,28.0,-100.00,West,274,1.0,6.0,93,0.00,,,0.03,1.000000,,2013-03-22 05:22:00,
2013-03-22 01:52:00,30.0,23.0,-100.00,NW,308,5.0,9.0,75,0.00,,,0.03,1.000000,,2013-03-22 05:52:00,
2013-03-22 02:02:00,30.0,23.0,-100.00,NW,308,5.0,9.0,75,0.00,,,0.03,1.000000,,2013-03-22 06:02:00,
2013-03-22 02:13:00,30.0,23.0,-100.00,NW,308,5.0,9.0,75,0.00,,,0.03,1.000000,,2013-03-22 06:13:00,
2013-03-22 02:22:00,30.0,23.0,-100.00,NW,308,5.0,9.0,75,0.00,,,0.03,1.000000,,2013-03-22 06:22:00,
2013-03-22 02:52:00,30.0,16.0,-100.00,NW,311,7.0,13.0,56,0.01,,,0.04,1.000000,,2013-03-22 06:52:00,
2013-03-22 03:03:00,30.0,16.0,-100.00,NW,311,7.0,13.0,56,0.01,,,0.04,1.000000,,2013-03-22 07:03:00,
2013-03-22 03:12:00,30.0,16.0,-100.00,NW,311,7.0,13.0,56,0.01,,,0.04,1.000000,,2013-03-22 07:12:00,
2013-03-22 03:22:00,30.0,16.0,-100.00,NW,311,7.0,13.0,56,0.01,,,0.04,1.000000,,2013-03-22 07:22:00,
2013-03-22 03:52:00,30.0,15.0,-100.00,NW,315,6.0,14.0,52,0.00,,,0.04,1.000000,,2013-03-22 07:52:00,
2013-03-22 04:03:00,30.0,15.0,-100.00,NW,315,6.0,14.0,52,0.00,,,0.04,1.000000,,2013-03-22 08:03:00,
2013-03-22 04:13:00,30.0,15.0,-100.00,NW,315,6.0,14.0,52,0.00,,,0.04,1.000000,,2013-03-22 08:13:00,
2013-03-22 04:22:00,30.0,15.0,-100.00,NW,315,6.0,14.0,52,0.00,,,0.04,1.000000,,2013-03-22 08:22:00,
2013-03-22 04:52:00,29.0,14.0,-100.00,NW,318,6.0,17.0,53,0.00,,,0.04,1.000000,,2013-03-22 08:52:00,
2013-03-22 05:03:00,29.0,14.0,-100.00,NW,318,6.0,17.0,53,0.00,,,0.04,1.000000,,2013-03-22 09:03:00,
2013-03-22 05:12:00,29.0,14.0,-100.00,NW,318,6.0,17.0,53,0.00,,,0.04,1.000000,,2013-03-22 09:12:00,
2013-03-22 05:22:00,29.0,14.0,-100.00,NW,318,6.0,17.0,53,0.00,,,0.04,1.000000,,2013-03-22 09:22:00,
2013-03-22 05:53:00,28.0,13.0,-100.00,NW,314,6.0,15.0,52,0.00,,,0.04,1.000000,,2013-03-22 09:53:00,
2013-03-22 06:04:00,28.0,13.0,-100.00,NW,314,6.0,15.0,52,0.00,,,0.04,1.000000,,2013-03-22 10:04:00,
2013-03-22 06:12:00,28.0,13.0,-100.00,NW,314,6.0,15.0,52,0.00,,,0.04,1.000000,,2013-03-22 10:12:00,
2013-03-22 06:23:00,28.0,13.0,-100.00,NW,314,6.0,15.0,52,0.00,,,0.04,1.000000,,2013-03-22 10:23:00,
2013-03-22 06:52:00,26.0,10.0,-100.00,WNW,294,6.0,13.0,51,0.00,,,0.04,1.000000,,2013-03-22 10:52:00,
2013-03-22 07:03:00,26.0,10.0,-100.00,WNW,294,6.0,13.0,51,0.00,,,0.04,1.000000,,2013-03-22 11:03:00,
2013-03-22 07:12:00,26.0,10.0,-100.00,WNW,294,6.0,13.0,51,0.00,,,0.04,1.000000,,2013-03-22 11:12:00,
2013-03-22 07:22:00,26.0,10.0,-100.00,WNW,294,6.0,13.0,51,0.00,,,0.04,1.000000,,2013-03-22 11:22:00,
2013-03-22 07:52:00,27.0,11.0,-100.00,WNW,289,5.0,12.0,51,0.00,,,0.04,15.000000,,2013-03-22 11:52:00,
2013-03-22 08:02:00,27.0,11.0,-100.00,WNW,289,5.0,12.0,51,0.00,,,0.04,15.000000,,2013-03-22 12:02:00,
2013-03-22 08:12:00,27.0,11.0,-100.00,WNW,289,5.0,12.0,51,0.00,,,0.04,15.000000,,2013-03-22 12:12:00,
2013-03-22 08:22:00,27.0,11.0,-100.00,WNW,289,5.0,12.0,51,0.00,,,0.04,15.000000,,2013-03-22 12:22:00,
2013-03-22 08:52:00,30.0,12.0,-100.00,NW,306,6.0,16.0,46,0.00,,,0.04,142.000000,,2013-03-22 12:52:00,
2013-03-22 09:02:00,30.0,12.0,-100.00,NW,306,6.0,16.0,46,0.00,,,0.04,142.000000,,2013-03-22 13:02:00,
2013-03-22 09:13:00,30.0,12.0,-100.00,NW,306,6.0,16.0,46,0.00,,,0.04,142.000000,,2013-03-22 13:13:00,
2013-03-22 09:22:00,30.0,12.0,-100.00,NW,306,6.0,16.0,46,0.00,,,0.04,142.000000,,2013-03-22 13:22:00,
2013-03-22 09:53:00,34.0,13.0,-100.00,NW,315,9.0,16.0,41,0.00,,,0.04,328.000000,,2013-03-22 13:53:00,
2013-03-22 10:03:00,34.0,13.0,-100.00,NW,315,9.0,16.0,41,0.00,,,0.04,328.000000,,2013-03-22 14:03:00,
2013-03-22 10:12:00,34.0,13.0,-100.00,NW,315,9.0,16.0,41,0.00,,,0.04,328.000000,,2013-03-22 14:12:00,
2013-03-22 10:22:00,34.0,13.0,-100.00,NW,315,9.0,16.0,41,0.00,,,0.04,328.000000,,2013-03-22 14:22:00,
2013-03-22 10:52:00,38.0,15.0,-100.00,NW,306,8.0,16.0,39,0.01,,,0.05,522.000000,,2013-03-22 14:52:00,
2013-03-22 11:03:00,38.0,15.0,-100.00,NW,306,8.0,16.0,39,0.01,,,0.05,522.000000,,2013-03-22 15:03:00,
2013-03-22 11:12:00,38.0,15.0,-100.00,NW,306,8.0,16.0,39,0.01,,,0.05,522.000000,,2013-03-22 15:12:00,
2013-03-22 11:22:00,38.0,15.0,-100.00,NW,306,8.0,16.0,39,0.01,,,0.05,522.000000,,2013-03-22 15:22:00,
2013-03-22 11:53:00,38.0,17.0,-100.00,NW,321,10.0,19.0,42,0.00,,,0.05,663.000000,,2013-03-22 15:53:00,
2013-03-22 12:03:00,38.0,17.0,-100.00,NW,321,10.0,19.0,42,0.00,,,0.05,663.000000,,2013-03-22 16:03:00,
2013-03-22 12:13:00,38.0,17.0,-100.00,NW,321,10.0,19.0,42,0.00,,,0.05,663.000000,,2013-03-22 16:13:00,
2013-03-22 12:23:00,38.0,17.0,-100.00,NW,321,10.0,19.0,42,0.00,,,0.05,663.000000,,2013-03-22 16:23:00,
2013-03-22 12:53:00,41.0,17.0,-100.00,West,270,8.0,16.0,38,0.00,,,0.05,755.000000,,2013-03-22 16:53:00,
2013-03-22 13:03:00,41.0,17.0,-100.00,West,270,8.0,16.0,38,0.00,,,0.05,755.000000,,2013-03-22 17:03:00,
2013-03-22 13:12:00,41.0,17.0,-100.00,West,270,8.0,16.0,38,0.00,,,0.05,755.000000,,2013-03-22 17:12:00,
2013-03-22 13:23:00,41.0,17.0,-100.00,West,270,8.0,16.0,38,0.00,,,0.05,755.000000,,2013-03-22 17:23:00,
2013-03-22 13:53:00,42.0,16.0,-100.00,WNW,290,8.0,22.0,34,0.00,,,0.05,864.000000,,2013-03-22 17:53:00,
2013-03-22 14:02:00,42.0,16.0,-100.00,WNW,290,8.0,22.0,34,0.00,,,0.05,864.000000,,2013-03-22 18:02:00,
2013-03-22 14:12:00,42.0,16.0,-100.00,WNW,290,8.0,22.0,34,0.00,,,0.05,864.000000,,2013-03-22 18:12:00,
2013-03-22 14:22:00,42.0,16.0,-100.00,WNW,290,8.0,22.0,34,0.00,,,0.05,864.000000,,2013-03-22 18:22:00,
2013-03-22 14:52:00,40.0,18.0,-100.00,WSW,251,7.0,15.0,40,0.00,,,0.05,300.000000,,2013-03-22 18:52:00,
2013-03-22 15:02:00,40.0,18.0,-100.00,WSW,251,7.0,15.0,40,0.00,,,0.05,300.000000,,2013-03-22 19:02:00,
2013-03-22 15:12:00,40.0,18.0,-100.00,WSW,251,7.0,15.0,40,0.00,,,0.05,300.000000,,2013-03-22 19:12:00,
2013-03-22 15:22:00,40.0,18.0,-100.00,WSW,251,7.0,15.0,40,0.00,,,0.05,300.000000,,2013-03-22 19:22:00,
2013-03-22 15:52:00,42.0,14.0,-100.00,WNW,283,7.0,20.0,31,0.00,,,0.05,278.000000,,2013-03-22 19:52:00,
2013-03-22 16:02:00,42.0,14.0,-100.00,WNW,283,7.0,20.0,31,0.00,,,0.05,278.000000,,2013-03-22 20:02:00,
2013-03-22 16:13:00,42.0,14.0,-100.00,WNW,283,7.0,20.0,31,0.00,,,0.05,278.000000,,2013-03-22 20:13:00,
2013-03-22 16:22:00,42.0,14.0,-100.00,WNW,283,7.0,20.0,31,0.00,,,0.05,278.000000,,2013-03-22 20:22:00,
2013-03-22 16:52:00,40.0,13.0,-100.00,WNW,286,5.0,17.0,32,0.00,,,0.05,216.000000,,2013-03-22 20:52:00,
2013-03-22 17:03:00,40.0,13.0,-100.00,WNW,286,5.0,17.0,32,0.00,,,0.05,216.000000,,2013-03-22 21:03:00,
2013-03-22 17:12:00,40.0,13.0,-100.00,WNW,286,5.0,17.0,32,0.00,,,0.05,216.000000,,2013-03-22 21:12:00,
2013-03-22 17:22:00,40.0,13.0,-100.00,WNW,286,5.0,17.0,32,0.00,,,0.05,216.000000,,2013-03-22 21:22:00,
2013-03-22 17:53:00,40.0,13.0,-100.00,West,278,5.0,16.0,33,0.00,,,0.05,106.000000,,2013-03-22 21:53:00,
2013-03-22 18:03:00,40.0,13.0,-100.00,West,278,5.0,16.0,33,0.00,,,0.05,106.000000,,2013-03-22 22:03:00,
2013-03-22 18:12:00,40.0,13.0,-100.00,West,278,5.0,16.0,33,0.00,,,0.05,106.000000,,2013-03-22 22:12:00,
2013-03-22 18:23:00,40.0,13.0,-100.00,West,278,5.0,16.0,33,0.00,,,0.05,106.000000,,2013-03-22 22:23:00,
2013-03-22 18:53:00,39.0,14.0,-100.00,West,263,8.0,18.0,36,0.00,,,0.02,88.000000,,2013-03-22 22:53:00,
2013-03-22 19:02:00,39.0,14.0,-100.00,West,263,8.0,18.0,36,0.00,,,0.02,88.000000,,2013-03-22 23:02:00,
2013-03-22 19:12:00,39.0,14.0,-100.00,West,263,8.0,18.0,36,0.00,,,0.02,88.000000,,2013-03-22 23:12:00,
2013-03-22 19:22:00,39.0,14.0,-100.00,West,263,8.0,18.0,36,0.00,,,0.02,88.000000,,2013-03-22 23:22:00,
2013-03-22 19:52:00,38.0,15.0,-100.00,West,265,5.0,17.0,39,0.00,,,0.02,10.000000,,2013-03-22 23:52:00,
2013-03-22 20:02:00,38.0,15.0,-100.00,West,265,5.0,17.0,39,0.00,,,0.02,10.000000,,2013-03-23 00:02:00,
2013-03-22 20:12:00,38.0,15.0,-100.00,West,265,5.0,17.0,39,0.00,,,0.02,10.000000,,2013-03-23 00:12:00,
2013-03-22 20:23:00,38.0,15.0,-100.00,West,265,5.0,17.0,39,0.00,,,0.02,10.000000,,2013-03-23 00:23:00,
2013-03-22 20:52:00,37.0,16.0,-100.00,West,269,6.0,18.0,42,0.00,,,0.02,0.000000,,2013-03-23 00:52:00,
2013-03-22 21:03:00,37.0,16.0,-100.00,West,269,6.0,18.0,42,0.00,,,0.02,0.000000,,2013-03-23 01:03:00,
2013-03-22 21:12:00,37.0,16.0,-100.00,West,269,6.0,18.0,42,0.00,,,0.02,0.000000,,2013-03-23 01:12:00,
2013-03-22 21:22:00,37.0,16.0,-100.00,West,269,6.0,18.0,42,0.00,,,0.02,0.000000,,2013-03-23 01:22:00,
2013-03-22 21:52:00,36.0,18.0,-100.00,West,259,6.0,14.0,47,0.00,,,0.02,1.000000,,2013-03-23 01:52:00,
2013-03-22 22:02:00,36.0,18.0,-100.00,West,259,6.0,14.0,47,0.00,,,0.02,1.000000,,2013-03-23 02:02:00,
2013-03-22 22:12:00,36.0,18.0,-100.00,West,259,6.0,14.0,47,0.00,,,0.02,1.000000,,2013-03-23 02:12:00,
2013-03-22 22:22:00,36.0,18.0,-100.00,West,259,6.0,14.0,47,0.00,,,0.02,1.000000,,2013-03-23 02:22:00,
2013-03-22 22:52:00,36.0,19.0,-100.00,West,267,6.0,15.0,49,0.00,,,0.02,0.000000,,2013-03-23 02:52:00,
2013-03-22 23:03:00,36.0,19.0,-100.00,West,267,6.0,15.0,49,0.00,,,0.02,0.000000,,2013-03-23 03:03:00,
2013-03-22 23:12:00,36.0,19.0,-100.00,West,267,6.0,15.0,49,0.00,,,0.02,0.000000,,2013-03-23 03:12:00,
2013-03-22 23:23:00,36.0,19.0,-100.00,West,267,6.0,15.0,49,0.00,,,0.02,0.000000,,2013-03-23 03:23:00,
2013-03-22 23:53:00,34.0,18.0,-100.00,WNW,291,8.0,19.0,52,0.00,,,0.02,1.000000,,2013-03-23 03:53:00,